Latest Weather Observations for Macquarie Island

IDT60801

Issued at 10:01 pm EDT Monday 22 December 2014 (issued every 30 minutes, with the page automatically refreshed every 10 minutes)

About weather observations | Map of weather stations | Latest weather observations for TAS | Other Formats
Station Details ID: 300004 Name: MACQUARIE ISLAND Lat: -54.50 Lon: 158.94 Height: 6.0 m
Data from the previous 72 hours. | See also: Recent months at Macquarie Island
Date/Time
EDT
Temp
°C
App
Temp
°C
Dew
Point
Rel
Hum
%
Delta-T
°C
Wind Press
QNH
hPa
Press
MSL
hPa
Rain
since 9 am
mm
Dir
 
Spd
km/h
Gust
km/h
Spd
kts
Gust
kts
22/10:00pm 7.1 -2.1 5.4 89 0.8 NW 43 50 23 27 1003.4 - 0.2
22/09:54pm 7.1 -2.1 5.4 89 0.8 NW 43 50 23 27 1003.3 - 0.2
22/09:35pm 7.4 -2.7 5.7 89 0.8 N 48 52 26 28 1003.0 - 0.2
22/09:32pm 7.3 -2.8 5.6 89 0.8 NNW 48 56 26 30 1002.9 - 0.2
22/09:30pm 7.3 -2.4 5.6 89 0.8 N 46 56 25 30 1002.9 - 0.2
22/09:19pm 7.4 -2.3 5.9 90 0.7 NNE 46 54 25 29 1002.5 - 0.2
22/09:00pm 7.5 -1.6 6.1 91 0.6 N 43 54 23 29 1002.1 1002.4 0.2
22/08:30pm 7.6 -1.6 6.4 92 0.5 N 44 54 24 29 1001.7 - 0.2
22/08:00pm 7.5 -2.0 6.6 94 0.4 NNW 46 56 25 30 1001.2 - 0.2
22/07:30pm 7.4 -1.2 6.5 94 0.4 NNW 41 54 22 29 1000.8 - 0.2
22/07:00pm 7.4 -0.8 6.5 94 0.4 NNW 39 54 21 29 1000.5 - 0.0
22/06:30pm 7.7 -1.3 6.2 90 0.7 NNW 43 54 23 29 1000.2 - 0.0
22/06:00pm 7.8 -0.9 6.1 89 0.8 NNW 41 52 22 28 999.9 1000.2 0.0
22/05:30pm 7.6 -1.7 5.9 89 0.8 N 44 52 24 28 999.6 - 0.0
22/05:00pm 7.8 -1.3 5.8 87 0.9 NNW 43 56 23 30 999.4 - 0.0
22/04:30pm 7.6 -1.2 5.4 86 1.0 NNW 41 50 22 27 999.2 - 0.0
22/04:14pm 7.6 -1.3 5.2 85 1.1 NNW 41 44 22 24 999.2 - 0.0
22/04:03pm 7.7 -1.2 5.2 84 1.1 NNE 41 44 22 24 999.2 - 0.0
22/04:00pm 7.8 -1.1 5.3 84 1.1 N 41 50 22 27 999.2 - 0.0
22/03:53pm 7.9 -1.4 5.2 83 1.2 N 43 50 23 27 999.2 - 0.0
22/03:42pm 8.4 -0.8 5.5 82 1.3 NW 43 46 23 25 999.2 - 0.0
22/03:30pm 8.3 -1.5 5.2 81 1.4 WNW 46 54 25 29 999.0 - 0.0
22/03:00pm 8.8 -1.4 5.2 78 1.6 WNW 48 61 26 33 998.4 998.7 0.0
22/02:30pm 9.0 -0.4 5.2 77 1.7 W 44 56 24 30 997.8 - 0.0
22/02:00pm 8.8 -2.2 5.0 77 1.7 W 52 65 28 35 997.2 - 0.0
22/01:30pm 8.4 -3.1 4.6 77 1.7 W 54 69 29 37 996.4 - 0.0
22/01:01pm 7.3 -4.5 4.6 83 1.2 W 56 74 30 40 995.8 - 0.0
22/01:00pm 7.2 -4.3 4.5 83 1.2 W 54 70 29 38 995.7 - 0.0
22/12:30pm 6.9 -4.0 5.5 91 0.6 W 52 67 28 36 995.1 - 0.0
22/12:02pm 7.8 -3.9 6.1 89 0.8 W 57 76 31 41 994.0 - 0.0
22/12:00pm 7.9 -3.8 6.2 89 0.8 W 57 72 31 39 994.0 994.3 0.0
22/11:54am 7.9 -3.2 6.5 91 0.6 W 54 70 29 38 993.7 - 0.0
22/11:34am 7.6 -1.5 6.7 94 0.4 WNW 44 52 24 28 993.0 - 0.0
22/11:30am 7.8 -1.7 6.9 94 0.4 NW 46 56 25 30 992.9 - 0.0
22/11:26am 7.8 -1.6 7.1 95 0.3 NW 46 52 25 28 992.9 - 0.0
22/11:17am 7.5 -2.4 6.8 95 0.3 N 48 56 26 30 992.6 - 0.0
22/11:00am 7.4 -0.5 6.2 92 0.5 NNW 37 46 20 25 992.7 - 0.0
22/10:30am 8.4 1.6 6.9 90 0.7 NNW 32 37 17 20 992.7 - 0.0
22/10:00am 8.0 1.2 6.9 93 0.5 N 32 35 17 19 992.6 - 0.0
22/09:30am 7.4 0.3 6.5 94 0.4 N 33 44 18 24 992.9 - 0.0
22/09:00am 7.0 -0.9 6.1 94 0.4 N 37 48 20 26 993.3 993.6 3.6
22/08:52am 7.0 -0.5 6.1 94 0.4 N 35 54 19 29 993.4 - 3.6
22/08:30am 7.0 1.5 5.9 93 0.5 N 24 41 13 22 993.8 - 3.4
22/08:00am 6.9 1.7 5.7 92 0.5 N 22 43 12 23 994.3 - 3.4
22/07:47am 6.8 0.5 5.6 92 0.5 N 28 54 15 29 994.4 - 3.4
22/07:30am 6.4 2.5 5.2 92 0.5 NNE 15 33 8 18 994.7 - 3.2
22/07:00am 6.3 1.4 5.1 92 0.5 N 20 37 11 20 995.3 - 2.8
22/06:30am 5.8 -0.3 4.6 92 0.5 N 26 43 14 23 995.7 - 2.6
22/06:00am 5.8 0.0 4.4 91 0.6 N 24 32 13 17 996.3 996.6 2.0
22/05:30am 5.8 -1.8 4.1 89 0.7 N 33 43 18 23 996.7 - 1.2
22/05:00am 6.3 -1.9 4.5 88 0.8 N 37 43 20 23 997.0 - 0.8
22/04:30am 6.1 -0.5 4.4 89 0.7 N 28 35 15 19 997.5 - 0.8
22/04:00am 6.3 -0.6 4.8 90 0.7 N 30 35 16 19 998.0 - 0.8
22/03:30am 6.2 -0.3 4.8 91 0.6 N 28 35 15 19 998.5 - 0.8
22/03:00am 5.9 -1.0 4.5 91 0.6 N 30 41 16 22 999.1 999.4 0.6
22/02:30am 5.8 0.3 4.1 89 0.7 N 22 28 12 15 999.6 - 0.2
22/02:00am 5.9 0.3 3.6 85 1.0 N 22 28 12 15 1000.2 - 0.0
22/01:30am 5.9 0.6 3.2 83 1.1 N 20 28 11 15 1000.8 - 0.0
22/01:00am 5.9 0.6 3.2 83 1.1 N 20 26 11 14 1001.3 - 0.0
22/12:30am 5.9 0.8 2.9 81 1.2 N 19 20 10 11 1001.6 - 0.0
22/12:00am 5.8 0.4 2.3 78 1.4 N 20 24 11 13 1002.1 1002.4 0.0
 
Date/Time
EDT
Temp
°C
App
Temp
°C
Dew
Point
Rel
Hum
%
Delta-T
°C
Wind Press
QNH
hPa
Press
MSL
hPa
Rain
since 9 am
mm
Dir
 
Spd
km/h
Gust
km/h
Spd
kts
Gust
kts
21/11:30pm 5.7 0.5 2.4 79 1.3 NNW 19 22 10 12 1002.6 - 0.0
21/11:00pm 5.6 0.8 2.8 82 1.1 NNW 17 20 9 11 1002.9 - 0.0
21/10:30pm 5.4 0.7 2.9 84 1.0 NNW 17 20 9 11 1003.4 - 0.0
21/10:00pm 5.1 1.0 2.1 81 1.2 NNW 13 17 7 9 1003.8 - 0.0
21/09:30pm 5.2 0.7 2.0 80 1.3 NNE 15 19 8 10 1004.0 - 0.0
21/09:00pm 4.9 0.4 1.9 81 1.2 WNW 15 17 8 9 1004.0 1004.3 0.0
21/08:30pm 5.1 0.2 1.9 80 1.3 W 17 22 9 12 1003.8 - 0.0
21/08:00pm 5.2 -0.7 1.5 77 1.5 W 22 28 12 15 1004.0 - 0.0
21/07:30pm 5.5 -1.6 1.1 73 1.7 W 28 32 15 17 1004.0 - 0.0
21/07:00pm 5.8 -1.3 1.2 72 1.8 W 28 35 15 19 1004.0 - 0.0
21/06:30pm 5.6 -2.3 1.0 72 1.8 W 32 39 17 21 1003.9 - 0.0
21/06:00pm 5.6 -2.5 0.8 71 1.9 W 33 41 18 22 1003.8 1004.1 0.0
21/05:30pm 5.9 -2.6 1.2 72 1.9 W 35 43 19 23 1003.6 - 0.0
21/05:00pm 6.1 -3.1 1.1 70 2.0 W 39 46 21 25 1003.4 - 0.0
21/04:30pm 5.8 -3.5 0.8 70 2.0 W 39 46 21 25 1003.7 - 0.0
21/04:00pm 5.8 -3.8 1.2 72 1.8 W 41 50 22 27 1003.9 - 0.0
21/03:30pm 5.6 -3.3 0.8 71 1.9 WSW 37 48 20 26 1003.8 - 0.0
21/03:00pm 5.9 -3.7 0.9 70 2.0 W 41 57 22 31 1003.2 1003.5 0.0
21/02:52pm 5.7 -3.6 0.5 69 2.0 WSW 39 57 21 31 1003.2 - 0.0
21/02:30pm 5.9 -4.1 0.9 70 2.0 W 43 52 23 28 1003.0 - 0.0
21/02:00pm 5.6 -3.7 0.8 71 1.9 WSW 39 59 21 32 1002.7 - 0.0
21/01:30pm 5.6 -4.4 1.0 72 1.8 W 43 61 23 33 1002.6 - 0.0
21/01:12pm 5.6 -4.5 0.6 70 1.9 WSW 43 65 23 35 1002.6 - 0.0
21/01:00pm 5.5 -4.4 1.4 75 1.6 W 43 57 23 31 1002.6 - 0.0
21/12:58pm 5.4 -4.6 1.3 75 1.6 WSW 43 61 23 33 1002.6 - 0.0
21/12:30pm 5.5 -4.4 1.4 75 1.6 WSW 43 57 23 31 1002.3 - 0.0
21/12:00pm 5.8 -4.6 2.3 78 1.4 W 46 65 25 35 1001.8 1002.1 0.0
21/11:30am 5.5 -5.7 1.6 76 1.6 WSW 50 69 27 37 1001.8 - 0.0
21/11:19am 5.5 -5.4 1.6 76 1.6 WSW 48 69 26 37 1001.7 - 0.0
21/11:00am 5.8 -5.0 1.9 76 1.6 WSW 48 65 26 35 1001.3 - 0.0
21/10:32am 5.8 -6.2 1.5 74 1.7 WSW 54 74 29 40 1001.1 - 0.0
21/10:30am 5.7 -5.9 1.6 75 1.6 WSW 52 69 28 37 1001.1 - 0.0
21/10:01am 5.6 -6.4 1.7 76 1.6 WSW 54 72 29 39 1000.5 - 0.0
21/10:00am 5.6 -6.3 1.9 77 1.5 W 54 69 29 37 1000.5 - 0.0
21/09:30am 5.3 -6.5 2.5 82 1.1 WSW 54 72 29 39 1000.3 - 0.0
21/09:00am 5.2 -7.2 2.7 84 1.0 W 57 76 31 41 999.8 1000.1 1.4
21/08:33am 5.2 -6.9 3.1 86 0.9 W 56 74 30 40 999.7 - 1.4
21/08:30am 5.1 -7.3 2.8 85 0.9 W 57 74 31 40 999.6 - 1.4
21/08:07am 5.0 -7.4 2.7 85 0.9 W 57 76 31 41 999.2 - 1.4
21/08:00am 4.9 -7.3 2.9 87 0.8 WSW 56 70 30 38 999.1 - 1.4
21/07:32am 5.0 -7.1 3.0 87 0.8 W 56 74 30 40 998.4 - 1.4
21/07:30am 5.1 -6.6 3.1 87 0.8 WSW 54 67 29 36 998.5 - 1.4
21/07:12am 5.0 -6.7 3.2 88 0.7 WSW 54 72 29 39 998.3 - 1.4
21/07:00am 5.1 -7.0 3.1 87 0.8 W 56 70 30 38 997.9 - 1.4
21/06:30am 5.1 -6.7 2.8 85 0.9 WSW 54 78 29 42 997.7 - 1.4
21/06:00am 5.1 -7.6 3.3 88 0.8 W 59 80 32 43 997.0 997.3 1.4
21/05:34am 5.1 -6.9 3.6 90 0.6 W 56 74 30 40 996.7 - 1.4
21/05:30am 5.1 -7.1 3.6 90 0.6 W 57 74 31 40 996.6 - 1.4
21/05:21am 5.1 -6.6 3.6 90 0.6 W 54 72 29 39 996.4 - 1.4
21/05:00am 5.0 -7.2 3.5 90 0.6 W 57 70 31 38 996.2 - 1.4
21/04:30am 5.0 -7.7 3.3 89 0.7 W 59 78 32 42 995.2 - 1.2
21/04:18am 5.0 -8.1 3.2 88 0.7 W 61 82 33 44 994.9 - 1.0
21/04:00am 4.9 -8.1 3.4 90 0.6 W 61 78 33 42 994.3 - 1.0
21/03:40am 4.9 -8.1 3.7 92 0.5 W 61 80 33 43 993.9 - 1.0
21/03:30am 5.0 -7.9 3.8 92 0.5 W 61 74 33 40 993.5 - 1.0
21/03:00am 5.4 -6.5 4.4 93 0.4 W 56 69 30 37 992.7 993.0 0.8
21/02:30am 5.8 -3.8 4.4 91 0.6 W 44 54 24 29 992.2 - 0.8
21/02:00am 6.0 -3.5 5.0 93 0.4 W 44 61 24 33 991.7 - 0.8
21/01:30am 5.7 -3.8 4.7 93 0.4 W 44 59 24 32 991.5 - 0.6
21/01:21am 5.7 -5.0 4.5 92 0.5 W 50 59 27 32 991.4 - 0.6
21/01:12am 5.9 -5.2 4.7 92 0.5 NW 52 63 28 34 991.3 - 0.6
21/01:00am 6.0 -5.1 4.6 91 0.6 N 52 63 28 34 991.2 - 0.6
21/12:59am 6.0 -5.1 4.6 91 0.6 N 52 61 28 33 991.2 - 0.6
21/12:52am 6.0 -5.5 4.6 91 0.6 NNE 54 63 29 34 991.2 - 0.6
21/12:30am 5.9 -4.4 4.7 92 0.5 NNW 48 59 26 32 991.5 - 0.6
21/12:00am 5.9 -5.2 4.4 90 0.6 NNW 52 59 28 32 992.2 992.5 0.6
 
Date/Time
EDT
Temp
°C
App
Temp
°C
Dew
Point
Rel
Hum
%
Delta-T
°C
Wind Press
QNH
hPa
Press
MSL
hPa
Rain
since 9 am
mm
Dir
 
Spd
km/h
Gust
km/h
Spd
kts
Gust
kts
20/11:30pm 6.1 -4.8 3.8 85 1.0 NNW 50 61 27 33 992.8 - 0.6
20/11:00pm 6.5 -3.9 4.0 84 1.1 NNW 48 61 26 33 993.1 - 0.6
20/10:30pm 6.5 -3.1 4.3 86 0.9 NNW 44 54 24 29 993.5 - 0.6
20/10:12pm 6.4 -3.0 4.4 87 0.9 NNW 43 61 23 33 993.6 - 0.6
20/10:00pm 6.5 -1.6 5.1 91 0.6 NNW 37 46 20 25 993.9 - 0.6
20/09:45pm 6.4 -2.0 5.5 94 0.4 NNW 39 46 21 25 994.1 - 0.6
20/09:41pm 6.4 -3.7 5.5 94 0.4 NNE 48 54 26 29 994.1 - 0.6
20/09:37pm 6.5 -1.9 5.6 94 0.4 NNW 39 57 21 31 994.2 - 0.6
20/09:30pm 6.7 -2.0 5.8 94 0.4 NNW 41 50 22 27 994.3 - 0.6
20/09:00pm 7.2 -1.0 6.5 95 0.3 NNW 39 46 21 25 994.4 994.7 0.6
20/08:30pm 7.5 -1.0 6.9 96 0.3 N 41 48 22 26 994.4 - 0.6
20/08:00pm 7.3 -0.9 6.6 95 0.3 N 39 46 21 25 994.8 - 0.4
20/07:30pm 7.4 0.3 6.5 94 0.4 N 33 39 18 21 995.1 - 0.2
20/07:00pm 7.4 0.8 6.2 92 0.5 N 30 37 16 20 995.5 - 0.0
20/06:30pm 7.5 0.3 6.1 91 0.6 N 33 39 18 21 995.9 - 0.0
20/06:00pm 8.0 0.8 6.0 87 0.9 N 33 39 18 21 996.2 996.5 0.0
20/05:30pm 8.0 1.0 5.8 86 1.0 N 32 37 17 20 996.5 - 0.0
20/05:00pm 8.3 0.7 5.9 85 1.1 N 35 39 19 21 996.9 - 0.0
20/04:30pm 8.4 0.8 5.9 84 1.1 NNW 35 41 19 22 997.3 - 0.0
20/04:00pm 8.5 0.4 5.3 80 1.4 NNW 37 43 20 23 997.6 - 0.0
20/03:30pm 8.8 1.1 5.5 80 1.5 NNW 35 41 19 22 997.9 - 0.0
20/03:00pm 9.0 1.9 5.4 78 1.6 NNW 32 37 17 20 998.1 998.4 0.0
20/02:30pm 9.0 1.9 5.7 80 1.5 NNW 32 35 17 19 998.3 - 0.0
20/02:00pm 9.0 2.2 5.2 77 1.7 NNW 30 35 16 19 998.7 - 0.0
20/01:30pm 9.5 2.8 5.5 76 1.8 NNW 30 35 16 19 999.0 - 0.0
20/01:00pm 9.0 1.6 4.2 72 2.1 NNW 32 39 17 21 999.2 - 0.0
20/12:30pm 8.4 0.4 3.8 73 2.0 NNW 35 44 19 24 999.1 - 0.0
20/12:02pm 7.9 -1.0 3.2 72 2.0 N 39 48 21 26 999.2 - 0.0
20/12:00pm 8.0 -1.2 3.3 72 2.0 NNE 41 46 22 25 999.2 999.5 0.0
20/11:59am 8.0 -1.2 3.5 73 1.9 N 41 46 22 25 999.2 - 0.0
20/11:55am 7.9 -0.5 3.6 74 1.8 NNW 37 44 20 24 999.3 - 0.0
20/11:30am 7.9 -1.3 3.6 74 1.8 NNE 41 48 22 26 999.3 - 0.0
20/11:06am 8.1 -1.0 3.8 74 1.9 N 41 46 22 25 999.2 - 0.0
20/11:04am 8.1 -0.6 3.9 75 1.8 NNW 39 43 21 23 999.2 - 0.0
20/11:00am 8.1 -0.6 4.3 77 1.7 NNE 39 44 21 24 999.3 - 0.0
20/10:58am 8.0 -1.1 4.0 76 1.7 NNE 41 44 22 24 999.3 - 0.0
20/10:53am 7.8 -1.7 3.8 76 1.7 N 43 46 23 25 999.2 - 0.0
20/10:47am 7.8 -0.8 4.4 79 1.5 NNE 39 44 21 24 999.2 - 0.0
20/10:30am 7.0 -1.8 3.4 78 1.5 NNW 39 44 21 24 999.2 - 0.0
20/10:28am 7.0 -1.5 3.4 78 1.5 NNW 37 41 20 22 999.2 - 0.0
20/10:11am 7.2 -2.3 3.8 79 1.5 NNE 43 46 23 25 999.0 - 0.0
20/10:00am 7.0 -1.4 3.6 79 1.4 N 37 43 20 23 999.0 - 0.0
20/09:44am 6.8 -3.0 2.5 74 1.8 N 43 48 23 26 999.0 - 0.0
20/09:30am 6.8 -0.6 3.8 81 1.3 NNW 32 39 17 21 999.0 - 0.0
20/09:00am 7.0 -1.4 3.6 79 1.5 N 37 44 20 24 999.0 999.3 1.6
20/08:50am 6.9 -1.9 3.5 79 1.4 N 39 41 21 22 998.9 - 1.6
20/08:47am 6.9 -2.3 3.3 78 1.5 NW 41 44 22 24 998.8 - 1.6
20/08:43am 6.9 -1.5 3.7 80 1.4 N 37 43 20 23 998.8 - 1.6
20/08:41am 6.8 -2.5 3.2 78 1.5 NNW 41 50 22 27 998.8 - 1.6
20/08:33am 6.7 -2.5 3.5 80 1.4 NNE 41 44 22 24 998.8 - 1.6
20/08:30am 6.7 -2.5 3.5 80 1.4 N 41 52 22 28 998.8 - 1.6
20/08:23am 6.7 -2.9 3.5 80 1.4 N 43 46 23 25 998.8 - 1.6
20/08:17am 6.5 -3.7 3.1 79 1.4 NNE 46 50 25 27 998.7 - 1.6
20/08:07am 6.7 -3.4 3.7 81 1.3 N 46 52 25 28 998.7 - 1.6
20/08:00am 6.7 -2.8 3.9 82 1.2 NNE 43 50 23 27 998.6 - 1.6
20/07:30am 7.0 -1.9 5.2 88 0.8 N 41 50 22 27 998.5 - 1.6
20/07:00am 6.5 -1.5 5.5 93 0.4 NNE 37 41 20 22 998.3 - 1.4
20/06:35am 6.4 -2.8 5.4 93 0.4 NNE 43 50 23 27 998.2 - 1.4
20/06:30am 6.4 -2.5 5.2 92 0.5 NNW 41 50 22 27 998.1 - 1.4
20/06:02am 6.7 -1.9 4.7 87 0.9 NNW 39 44 21 24 998.0 - 1.4
20/06:00am 6.7 -2.3 4.7 87 0.9 N 41 46 22 25 998.0 998.3 1.4
20/05:30am 6.6 -2.3 4.9 89 0.7 NNE 41 46 22 25 997.9 - 1.4
20/05:11am 6.7 -1.8 5.2 90 0.7 NNE 39 46 21 25 997.8 - 1.4
20/05:00am 6.7 -0.6 5.3 91 0.6 NNW 33 41 18 22 997.7 - 1.4
20/04:30am 6.6 -0.7 5.6 93 0.4 NNW 33 46 18 25 997.6 - 1.4
20/04:00am 6.7 0.4 5.7 93 0.4 NNW 28 33 15 18 997.7 - 1.4
20/03:30am 6.6 -0.7 5.6 93 0.4 NNW 33 44 18 24 997.7 - 1.4
20/03:19am 6.6 -1.0 5.7 94 0.4 NNW 35 54 19 29 997.7 - 1.4
20/03:00am 6.8 -3.2 6.1 95 0.3 NNW 48 61 26 33 997.6 997.9 1.4
20/02:57am 6.9 -3.9 6.2 95 0.3 NNW 52 61 28 33 997.4 - 1.4
20/02:30am 7.3 -0.1 6.6 95 0.3 N 35 44 19 24 997.9 - 1.2
20/02:08am 7.2 -1.8 6.3 94 0.4 N 43 61 23 33 998.2 - 1.2
20/02:00am 7.4 -1.8 6.5 94 0.4 N 44 61 24 33 998.3 - 1.2
20/01:32am 7.5 -0.8 6.3 92 0.5 N 39 70 21 38 998.8 - 1.0
20/01:30am 7.5 1.3 6.3 92 0.5 N 28 50 15 27 998.8 - 1.0
20/01:00am 7.6 0.5 6.4 92 0.5 N 33 61 18 33 999.5 - 1.0
20/12:57am 7.6 0.7 6.4 92 0.5 N 32 61 17 33 999.6 - 1.0
20/12:30am 7.5 3.8 6.1 91 0.6 NNE 15 35 8 19 1000.0 - 1.0
20/12:00am 7.5 2.0 6.0 90 0.7 N 24 54 13 29 1000.5 1000.8 0.6
 
Date/Time
EDT
Temp
°C
App
Temp
°C
Dew
Point
Rel
Hum
%
Delta-T
°C
Wind Press
QNH
hPa
Press
MSL
hPa
Rain
since 9 am
mm
Dir
 
Spd
km/h
Gust
km/h
Spd
kts
Gust
kts
19/11:30pm 7.6 1.7 5.9 89 0.8 N 26 50 14 27 1001.0 - 0.0
19/11:00pm 7.7 1.8 5.7 87 0.9 N 26 46 14 25 1001.4 - 0.0
19/10:30pm 7.6 1.6 5.4 86 1.0 N 26 50 14 27 1001.8 - 0.0

Other Formats:

Comma delimited format used in spreadsheet applications
http://www.bom.gov.au/fwo/IDT60801/IDT60801.94998.axf

JavaScript Object Notation format (JSON) in row-major order
http://www.bom.gov.au/fwo/IDT60801/IDT60801.94998.json